createdAt,value
2023-02-18T00:00:41.484Z,12.63
2023-02-18T00:01:41.515Z,12.63
2023-02-18T00:02:41.576Z,12.69
2023-02-18T00:03:41.650Z,12.71
2023-02-18T00:04:41.590Z,12.71
2023-02-18T00:05:41.616Z,12.63
2023-02-18T00:06:41.646Z,12.61
2023-02-18T00:07:41.686Z,12.59
2023-02-18T00:08:41.699Z,12.59
2023-02-18T00:09:41.726Z,12.61
2023-02-18T00:10:41.748Z,12.65
2023-02-18T00:11:41.777Z,12.63
2023-02-18T00:12:41.799Z,12.74
2023-02-18T00:13:41.827Z,12.66
2023-02-18T00:14:41.854Z,12.66
2023-02-18T00:15:41.896Z,12.62
2023-02-18T00:16:41.913Z,12.62
2023-02-18T00:17:41.934Z,12.69
2023-02-18T00:18:41.981Z,12.66
2023-02-18T00:19:41.989Z,12.63
2023-02-18T00:20:42.025Z,12.63
2023-02-18T00:21:42.056Z,12.61
2023-02-18T00:22:42.066Z,12.62
2023-02-18T00:23:43.897Z,12.63
2023-02-18T00:24:42.118Z,12.61
2023-02-18T00:25:42.149Z,12.59
2023-02-18T00:26:42.172Z,12.56
2023-02-18T00:27:42.200Z,12.56
2023-02-18T00:28:42.232Z,12.59
2023-02-18T00:29:42.251Z,12.66
2023-02-18T00:30:42.283Z,12.59
2023-02-18T00:31:42.509Z,12.59
2023-02-18T00:32:42.330Z,12.62
2023-02-18T00:33:42.357Z,12.62
2023-02-18T00:34:42.404Z,12.55
2023-02-18T00:35:42.414Z,12.59
2023-02-18T00:36:42.436Z,12.63
2023-02-18T00:37:42.461Z,12.62
2023-02-18T00:38:42.503Z,12.62
2023-02-18T00:39:42.540Z,12.62
2023-02-18T00:40:42.541Z,12.59
2023-02-18T00:41:42.578Z,12.59
2023-02-18T00:42:42.596Z,12.61
2023-02-18T00:43:42.631Z,12.59
2023-02-18T00:44:42.649Z,12.61
2023-02-18T00:45:42.674Z,12.58
2023-02-18T00:46:42.747Z,12.61
2023-02-18T00:47:42.726Z,12.58
2023-02-18T00:48:42.755Z,12.58
2023-02-18T00:49:42.779Z,12.56
2023-02-18T00:50:42.831Z,12.59
2023-02-18T00:51:42.836Z,12.52
2023-02-18T00:52:42.862Z,12.55
2023-02-18T00:53:42.885Z,12.52
2023-02-18T00:54:42.925Z,12.51
2023-02-18T00:55:42.935Z,12.59
2023-02-18T00:56:42.971Z,12.51
2023-02-18T00:57:42.991Z,12.53
2023-02-18T00:58:43.021Z,12.58
2023-02-18T00:59:43.041Z,12.63
2023-02-18T01:00:43.088Z,12.52
2023-02-18T01:01:43.147Z,12.48
2023-02-18T01:02:43.128Z,12.53
2023-02-18T01:03:43.154Z,12.61
2023-02-18T01:04:43.225Z,12.53
2023-02-18T01:05:43.202Z,12.52
2023-02-18T01:06:43.252Z,12.58
2023-02-18T01:07:43.256Z,12.51
2023-02-18T01:08:43.291Z,12.48
2023-02-18T01:09:43.309Z,12.52
2023-02-18T01:10:43.338Z,12.55
2023-02-18T01:11:43.364Z,12.56
2023-02-18T01:12:43.391Z,12.53
2023-02-18T01:13:43.417Z,12.53
2023-02-18T01:14:43.445Z,12.55
2023-02-18T01:15:43.491Z,12.55
2023-02-18T01:16:43.499Z,12.53
2023-02-18T01:17:43.522Z,12.47
2023-02-18T01:18:43.551Z,12.48
2023-02-18T01:19:43.578Z,12.58
2023-02-18T01:20:43.606Z,12.47
2023-02-18T01:21:43.630Z,12.51
2023-02-18T01:22:43.676Z,12.45
2023-02-18T01:23:43.688Z,12.55
2023-02-18T01:24:46.201Z,12.48
2023-02-18T01:25:43.737Z,12.53
2023-02-18T01:26:43.762Z,12.52
2023-02-18T01:27:43.785Z,12.48
2023-02-18T01:28:43.815Z,12.58
2023-02-18T01:29:43.840Z,12.48
2023-02-18T01:30:43.874Z,12.58
2023-02-18T01:31:44.002Z,12.55
2023-02-18T01:32:43.922Z,12.58
2023-02-18T01:33:43.960Z,12.61
2023-02-18T01:34:43.974Z,12.56
2023-02-18T01:35:44.003Z,12.48
2023-02-18T01:36:44.029Z,12.52
2023-02-18T01:37:44.054Z,12.55
2023-02-18T01:38:44.099Z,12.55
2023-02-18T01:39:44.103Z,12.48
2023-02-18T01:40:44.128Z,12.53
2023-02-18T01:41:44.154Z,12.45
2023-02-18T01:42:44.181Z,12.44
2023-02-18T01:43:44.204Z,12.41
2023-02-18T01:44:44.232Z,12.47
2023-02-18T01:45:44.259Z,12.47
2023-02-18T01:46:44.332Z,12.36
2023-02-18T01:47:44.308Z,12.47
2023-02-18T01:48:44.344Z,12.38
2023-02-18T01:49:44.368Z,12.38
2023-02-18T01:50:44.392Z,12.45
2023-02-18T01:51:44.413Z,12.37
2023-02-18T01:52:44.440Z,12.41
2023-02-18T01:53:44.477Z,12.45
2023-02-18T01:54:44.513Z,12.41
2023-02-18T01:55:44.521Z,12.43
2023-02-18T01:56:44.549Z,12.41
2023-02-18T01:57:44.573Z,12.44
2023-02-18T01:58:44.598Z,12.34
2023-02-18T01:59:44.622Z,12.36
2023-02-18T02:00:44.689Z,12.40
2023-02-18T02:01:44.756Z,12.45
2023-02-18T02:02:44.703Z,12.41
2023-02-18T02:03:44.725Z,12.38
2023-02-18T02:04:44.755Z,12.45
2023-02-18T02:05:44.781Z,12.38
2023-02-18T02:06:44.810Z,12.40
2023-02-18T02:07:44.832Z,12.45
2023-02-18T02:08:44.860Z,12.38
2023-02-18T02:09:44.886Z,12.36
2023-02-18T02:10:44.985Z,12.38
2023-02-18T02:11:44.940Z,12.37
2023-02-18T02:12:44.967Z,12.29
2023-02-18T02:13:44.992Z,12.41
2023-02-18T02:14:45.027Z,12.37
2023-02-18T02:15:45.042Z,12.37
2023-02-18T02:16:45.091Z,12.26
2023-02-18T02:17:45.106Z,12.33
2023-02-18T02:18:45.127Z,12.34
2023-02-18T02:19:45.150Z,12.22
2023-02-18T02:20:45.178Z,12.33
2023-02-18T02:21:45.208Z,12.28
2023-02-18T02:22:45.231Z,12.29
2023-02-18T02:23:45.262Z,12.28
2023-02-18T02:24:45.285Z,12.23
2023-02-18T02:25:45.310Z,12.23
2023-02-18T02:26:45.355Z,12.26
2023-02-18T02:27:45.366Z,12.28
2023-02-18T02:28:45.392Z,12.29
2023-02-18T02:29:45.441Z,12.20
2023-02-18T02:30:45.450Z,12.26
2023-02-18T02:31:45.559Z,12.25
2023-02-18T02:32:45.498Z,12.22
2023-02-18T02:33:45.520Z,12.29
2023-02-18T02:34:45.553Z,12.18
2023-02-18T02:35:45.573Z,12.23
2023-02-18T02:36:45.612Z,12.29
2023-02-18T02:37:45.626Z,12.31
2023-02-18T02:38:45.655Z,12.37
2023-02-18T02:39:45.676Z,12.31
2023-02-18T02:40:45.706Z,12.31
2023-02-18T02:41:45.730Z,12.23
2023-02-18T02:42:45.788Z,12.29
2023-02-18T02:43:45.783Z,12.22
2023-02-18T02:44:45.812Z,12.20
2023-02-18T02:45:45.843Z,12.26
2023-02-18T02:46:45.870Z,12.25
2023-02-18T02:47:45.892Z,12.20
2023-02-18T02:48:45.928Z,12.28
2023-02-18T02:49:45.945Z,12.26
2023-02-18T02:50:45.974Z,12.22
2023-02-18T02:51:45.998Z,12.26
2023-02-18T02:52:46.027Z,12.25
2023-02-18T02:53:46.052Z,12.23
2023-02-18T02:54:46.148Z,12.29
2023-02-18T02:55:46.106Z,12.28
2023-02-18T02:56:46.136Z,12.28
2023-02-18T02:57:46.167Z,12.26
2023-02-18T02:58:46.210Z,12.31
2023-02-18T02:59:46.209Z,12.23
2023-02-18T03:00:46.271Z,12.25
2023-02-18T03:01:46.264Z,12.28
2023-02-18T03:02:46.341Z,12.25
2023-02-18T03:03:46.316Z,12.22
2023-02-18T03:04:46.345Z,12.33
2023-02-18T03:05:46.383Z,12.23
2023-02-18T03:06:46.398Z,12.29
2023-02-18T03:07:46.424Z,12.26
2023-02-18T03:08:46.454Z,12.31
2023-02-18T03:09:46.475Z,12.28
2023-02-18T03:10:46.653Z,12.25
2023-02-18T03:11:46.527Z,12.29
2023-02-18T03:12:46.558Z,12.22
2023-02-18T03:13:46.581Z,12.34
2023-02-18T03:14:46.630Z,12.22
2023-02-18T03:15:46.635Z,12.28
2023-02-18T03:16:46.693Z,12.26
2023-02-18T03:17:46.692Z,12.36
2023-02-18T03:18:46.716Z,12.34
2023-02-18T03:19:46.739Z,12.37
2023-02-18T03:20:46.785Z,12.34
2023-02-18T03:21:46.794Z,12.36
2023-02-18T03:22:46.824Z,12.38
2023-02-18T03:23:46.853Z,12.38
2023-02-18T03:24:46.979Z,12.40
2023-02-18T03:25:46.897Z,12.37
2023-02-18T03:26:46.929Z,12.33
2023-02-18T03:27:46.959Z,12.37
2023-02-18T03:28:46.986Z,12.44
2023-02-18T03:29:47.006Z,12.40
2023-02-18T03:30:47.053Z,12.34
2023-02-18T03:31:47.149Z,12.37
2023-02-18T03:32:47.084Z,12.33
2023-02-18T03:33:47.109Z,12.34
2023-02-18T03:34:47.136Z,12.31
2023-02-18T03:35:47.167Z,12.29
2023-02-18T03:36:47.193Z,12.36
2023-02-18T03:37:47.220Z,12.31
2023-02-18T03:38:47.242Z,12.29
2023-02-18T03:39:47.266Z,12.29
2023-02-18T03:40:47.295Z,12.28
2023-02-18T03:41:47.340Z,12.36
2023-02-18T03:42:47.355Z,12.29
2023-02-18T03:43:47.375Z,12.22
2023-02-18T03:44:47.401Z,12.28
2023-02-18T03:45:47.476Z,12.29
2023-02-18T03:46:47.475Z,12.34
2023-02-18T03:47:47.476Z,12.26
2023-02-18T03:48:47.509Z,12.18
2023-02-18T03:49:47.532Z,12.20
2023-02-18T03:50:47.557Z,12.22
2023-02-18T03:51:47.586Z,12.16
2023-02-18T03:52:47.612Z,12.15
2023-02-18T03:53:47.633Z,12.20
2023-02-18T03:54:47.666Z,12.15
2023-02-18T03:55:47.683Z,12.08
2023-02-18T03:56:47.717Z,12.05
2023-02-18T03:57:47.739Z,12.15
2023-02-18T03:58:47.763Z,12.08
2023-02-18T03:59:47.786Z,12.10
2023-02-18T04:00:47.814Z,12.07
2023-02-18T04:01:47.838Z,12.04
2023-02-18T04:02:47.884Z,12.05
2023-02-18T04:03:47.892Z,11.97
2023-02-18T04:04:47.918Z,12.08
2023-02-18T04:05:47.945Z,12.11
2023-02-18T04:06:47.972Z,12.11
2023-02-18T04:07:48.009Z,12.05
2023-02-18T04:08:48.022Z,12.00
2023-02-18T04:09:48.045Z,11.95
2023-02-18T04:10:48.226Z,12.05
2023-02-18T04:11:48.098Z,12.00
2023-02-18T04:12:48.125Z,12.07
2023-02-18T04:13:48.149Z,11.98
2023-02-18T04:14:48.178Z,12.08
2023-02-18T04:15:48.202Z,12.04
2023-02-18T04:16:48.260Z,12.05
2023-02-18T04:17:48.255Z,12.05
2023-02-18T04:18:48.302Z,12.03
2023-02-18T04:19:48.331Z,12.04
2023-02-18T04:20:48.334Z,12.07
2023-02-18T04:21:48.363Z,12.08
2023-02-18T04:22:48.388Z,12.01
2023-02-18T04:23:48.411Z,12.05
2023-02-18T04:24:48.448Z,12.10
2023-02-18T04:25:48.468Z,12.07
2023-02-18T04:26:48.495Z,12.10
2023-02-18T04:27:48.517Z,12.05
2023-02-18T04:28:48.561Z,12.16
2023-02-18T04:29:48.566Z,12.16
2023-02-18T04:30:48.761Z,12.23
2023-02-18T04:31:48.735Z,12.15
2023-02-18T04:32:48.649Z,12.20
2023-02-18T04:33:48.683Z,12.23
2023-02-18T04:34:48.720Z,12.20
2023-02-18T04:35:48.726Z,12.18
2023-02-18T04:36:48.752Z,12.19
2023-02-18T04:37:48.784Z,12.23
2023-02-18T04:38:48.807Z,12.25
2023-02-18T04:39:48.828Z,12.25
2023-02-18T04:40:48.857Z,12.25
2023-02-18T04:41:48.890Z,12.26
2023-02-18T04:42:48.910Z,12.23
2023-02-18T04:43:48.932Z,12.29
2023-02-18T04:44:48.963Z,12.33
2023-02-18T04:45:48.993Z,12.28
2023-02-18T04:46:49.015Z,12.23
2023-02-18T04:47:49.041Z,12.33
2023-02-18T04:48:49.076Z,12.34
2023-02-18T04:49:49.097Z,12.34
2023-02-18T04:50:49.135Z,12.34
2023-02-18T04:51:49.147Z,12.36
2023-02-18T04:52:49.169Z,12.26
2023-02-18T04:53:49.199Z,12.38
2023-02-18T04:54:49.227Z,12.28
2023-02-18T04:55:49.250Z,12.36
2023-02-18T04:56:49.275Z,12.26
2023-02-18T04:57:49.306Z,12.26
2023-02-18T04:58:49.330Z,12.33
2023-02-18T04:59:49.354Z,12.29
2023-02-18T05:00:49.381Z,12.23
2023-02-18T05:01:49.410Z,12.34
2023-02-18T05:02:49.434Z,12.22
2023-02-18T05:03:49.509Z,12.18
2023-02-18T05:04:49.488Z,12.26
2023-02-18T05:05:49.518Z,12.23
2023-02-18T05:06:49.560Z,12.19
2023-02-18T05:07:49.569Z,12.25
2023-02-18T05:08:49.594Z,12.22
2023-02-18T05:09:49.628Z,12.22
2023-02-18T05:10:49.647Z,12.15
2023-02-18T05:11:49.673Z,12.10
2023-02-18T05:12:49.698Z,12.13
2023-02-18T05:13:49.726Z,12.10
2023-02-18T05:14:49.753Z,12.15
2023-02-18T05:15:49.827Z,11.94
2023-02-18T05:16:49.809Z,12.01
2023-02-18T05:17:49.831Z,11.86
2023-02-18T05:18:49.856Z,11.81
2023-02-18T05:19:49.883Z,11.85
2023-02-18T05:20:49.907Z,11.82
2023-02-18T05:21:49.940Z,11.81
2023-02-18T05:22:49.984Z,11.73
2023-02-18T05:23:49.990Z,11.78
2023-02-18T05:24:50.027Z,11.75
2023-02-18T05:25:50.050Z,11.70
2023-02-18T05:26:50.064Z,11.73
2023-02-18T05:27:50.101Z,11.63
2023-02-18T05:28:50.116Z,11.71
2023-02-18T05:29:50.147Z,11.64
2023-02-18T05:30:50.230Z,11.64
2023-02-18T05:31:50.328Z,11.63
2023-02-18T05:32:50.219Z,11.67
2023-02-18T05:33:50.248Z,11.56
2023-02-18T05:34:50.272Z,11.64
2023-02-18T05:35:50.300Z,11.61
2023-02-18T05:36:50.327Z,11.57
2023-02-18T05:37:50.369Z,11.61
2023-02-18T05:38:50.394Z,11.60
2023-02-18T05:39:50.416Z,11.57
2023-02-18T05:40:50.428Z,11.59
2023-02-18T05:41:50.452Z,11.64
2023-02-18T05:42:50.478Z,11.53
2023-02-18T05:43:50.509Z,11.53
2023-02-18T05:44:50.529Z,11.56
2023-02-18T05:45:50.555Z,11.57
2023-02-18T05:46:50.580Z,11.56
2023-02-18T05:47:50.608Z,11.56
2023-02-18T05:48:50.635Z,11.57
2023-02-18T05:49:50.659Z,11.46
2023-02-18T05:50:50.682Z,11.52
2023-02-18T05:51:50.710Z,11.53
2023-02-18T05:52:50.736Z,11.57
2023-02-18T05:53:50.764Z,11.53
2023-02-18T05:54:50.803Z,11.53
2023-02-18T05:55:50.815Z,11.56
2023-02-18T05:56:50.841Z,11.59
2023-02-18T05:57:50.867Z,11.59
2023-02-18T05:58:50.896Z,11.56
2023-02-18T05:59:50.915Z,11.52
2023-02-18T06:00:50.941Z,11.57
2023-02-18T06:01:50.968Z,11.63
2023-02-18T06:02:51.021Z,11.56
2023-02-18T06:03:51.034Z,11.59
2023-02-18T06:04:51.048Z,11.52
2023-02-18T06:05:51.112Z,11.61
2023-02-18T06:06:51.102Z,11.59
2023-02-18T06:07:51.125Z,11.63
2023-02-18T06:08:51.148Z,11.63
2023-02-18T06:09:51.180Z,11.67
2023-02-18T06:10:51.218Z,11.64
2023-02-18T06:11:51.232Z,11.63
2023-02-18T06:12:51.261Z,11.66
2023-02-18T06:13:51.280Z,11.57
2023-02-18T06:14:51.303Z,11.73
2023-02-18T06:15:51.430Z,11.70
2023-02-18T06:16:51.353Z,11.66
2023-02-18T06:17:51.379Z,11.75
2023-02-18T06:18:51.404Z,11.63
2023-02-18T06:19:51.432Z,11.66
2023-02-18T06:20:51.467Z,11.73
2023-02-18T06:21:51.485Z,11.76
2023-02-18T06:22:51.508Z,11.76
2023-02-18T06:23:51.547Z,11.79
2023-02-18T06:24:51.560Z,11.76
2023-02-18T06:25:51.586Z,11.76
2023-02-18T06:26:51.639Z,11.73
2023-02-18T06:27:51.643Z,11.73
2023-02-18T06:28:51.664Z,11.81
2023-02-18T06:29:51.689Z,11.84
2023-02-18T06:30:51.710Z,11.79
2023-02-18T06:31:51.787Z,11.76
2023-02-18T06:32:51.767Z,11.76
2023-02-18T06:33:51.789Z,11.81
2023-02-18T06:34:51.814Z,11.73
2023-02-18T06:35:51.839Z,11.78
2023-02-18T06:36:51.863Z,11.78
2023-02-18T06:37:51.892Z,11.84
2023-02-18T06:38:51.922Z,11.85
2023-02-18T06:39:51.939Z,11.76
2023-02-18T06:40:51.965Z,11.78
2023-02-18T06:41:51.991Z,11.79
2023-02-18T06:42:52.051Z,11.78
2023-02-18T06:43:52.046Z,11.85
2023-02-18T06:44:52.089Z,11.89
2023-02-18T06:45:52.096Z,11.94
2023-02-18T06:46:52.184Z,11.94
2023-02-18T06:47:52.146Z,11.94
2023-02-18T06:48:52.168Z,11.91
2023-02-18T06:49:52.197Z,11.91
2023-02-18T06:50:52.221Z,11.95
2023-02-18T06:51:52.248Z,11.94
2023-02-18T06:52:52.271Z,11.97
2023-02-18T06:53:52.308Z,11.91
2023-02-18T06:54:52.323Z,11.98
2023-02-18T06:55:52.352Z,11.95
2023-02-18T06:56:52.378Z,12.01
2023-02-18T06:57:52.403Z,12.04
2023-02-18T06:58:52.445Z,12.05
2023-02-18T06:59:52.452Z,12.13
2023-02-18T07:00:52.556Z,12.10
2023-02-18T07:01:52.505Z,12.08
2023-02-18T07:02:52.534Z,12.11
2023-02-18T07:03:52.634Z,12.07
2023-02-18T07:04:52.580Z,12.13
2023-02-18T07:05:52.607Z,12.01
2023-02-18T07:06:52.633Z,12.20
2023-02-18T07:07:52.662Z,12.15
2023-02-18T07:08:52.696Z,12.22
2023-02-18T07:09:52.713Z,12.23
2023-02-18T07:10:52.736Z,12.26
2023-02-18T07:11:52.762Z,12.25
2023-02-18T07:12:53.039Z,12.36
2023-02-18T07:13:52.811Z,12.23
2023-02-18T07:14:53.007Z,12.29
2023-02-18T07:15:52.866Z,12.29
2023-02-18T07:16:52.889Z,12.26
2023-02-18T07:17:52.967Z,12.29
2023-02-18T07:18:52.942Z,12.28
2023-02-18T07:19:52.968Z,12.25
2023-02-18T07:20:52.992Z,12.28
2023-02-18T07:21:53.020Z,12.25
2023-02-18T07:22:53.044Z,12.26
2023-02-18T07:23:53.071Z,12.23
2023-02-18T07:24:53.101Z,12.31
2023-02-18T07:25:53.124Z,12.29
2023-02-18T07:26:53.146Z,12.34
2023-02-18T07:27:53.177Z,12.38
2023-02-18T07:28:53.198Z,12.38
2023-02-18T07:29:53.230Z,12.41
2023-02-18T07:30:53.325Z,12.33
2023-02-18T07:31:53.358Z,12.44
2023-02-18T07:32:53.304Z,12.37
2023-02-18T07:33:53.329Z,12.44
2023-02-18T07:34:53.355Z,12.38
2023-02-18T07:35:53.384Z,12.48
2023-02-18T07:36:53.405Z,12.40
2023-02-18T07:37:53.433Z,12.48
2023-02-18T07:38:53.461Z,12.51
2023-02-18T07:39:53.486Z,12.56
2023-02-18T07:40:53.511Z,12.65
2023-02-18T07:41:53.541Z,12.70
2023-02-18T07:42:53.566Z,12.66
2023-02-18T07:43:53.589Z,12.73
2023-02-18T07:44:53.616Z,12.74
2023-02-18T07:45:53.693Z,12.74
2023-02-18T07:46:53.688Z,12.74
2023-02-18T07:47:53.695Z,12.71
2023-02-18T07:48:53.729Z,12.80
2023-02-18T07:49:53.746Z,12.70
2023-02-18T07:50:53.783Z,12.86
2023-02-18T07:51:53.799Z,12.81
2023-02-18T07:52:53.823Z,12.78
2023-02-18T07:53:53.851Z,12.74
2023-02-18T07:54:53.880Z,12.78
2023-02-18T07:55:53.905Z,12.71
2023-02-18T07:56:53.932Z,12.71
2023-02-18T07:57:53.964Z,12.71
2023-02-18T07:58:53.987Z,12.58
2023-02-18T07:59:54.010Z,12.59
2023-02-18T08:00:54.033Z,12.56
2023-02-18T08:01:54.116Z,12.58
2023-02-18T08:02:54.122Z,12.52
2023-02-18T08:03:54.130Z,12.47
2023-02-18T08:04:54.143Z,12.41
2023-02-18T08:05:54.170Z,12.45
2023-02-18T08:06:54.198Z,12.45
2023-02-18T08:07:54.235Z,12.38
2023-02-18T08:08:54.253Z,12.26
2023-02-18T08:09:54.276Z,12.40
2023-02-18T08:10:54.302Z,12.23
2023-02-18T08:11:54.332Z,12.20
2023-02-18T08:12:54.353Z,12.13
2023-02-18T08:13:54.383Z,11.98
2023-02-18T08:14:54.412Z,11.98
2023-02-18T08:15:54.434Z,11.95
2023-02-18T08:16:54.527Z,11.85
2023-02-18T08:17:54.490Z,11.91
2023-02-18T08:18:54.541Z,11.86
2023-02-18T08:19:54.545Z,11.82
2023-02-18T08:20:54.566Z,11.73
2023-02-18T08:21:54.595Z,11.75
2023-02-18T08:22:54.619Z,11.71
2023-02-18T08:23:54.646Z,11.70
2023-02-18T08:24:54.674Z,11.68
2023-02-18T08:25:54.698Z,11.66
2023-02-18T08:27:00.690Z,11.67
2023-02-18T08:27:54.752Z,11.64
2023-02-18T08:28:54.783Z,11.67
2023-02-18T08:29:54.803Z,11.66
2023-02-18T08:30:54.913Z,11.61
2023-02-18T08:31:55.129Z,11.63
2023-02-18T08:32:54.888Z,11.61
2023-02-18T08:33:54.915Z,11.68
2023-02-18T08:34:54.950Z,11.52
2023-02-18T08:35:54.962Z,11.53
2023-02-18T08:36:54.993Z,11.56
2023-02-18T08:37:55.775Z,11.48
2023-02-18T08:38:55.035Z,11.51
2023-02-18T08:39:55.061Z,11.43
2023-02-18T08:40:55.087Z,11.42
2023-02-18T08:41:55.117Z,11.56
2023-02-18T08:42:55.139Z,11.56
2023-02-18T08:43:55.180Z,11.51
2023-02-18T08:44:55.190Z,11.61
2023-02-18T08:45:55.240Z,11.59
2023-02-18T08:46:55.346Z,11.64
2023-02-18T08:48:18.158Z,11.61
2023-02-18T08:48:55.293Z,11.63
2023-02-18T08:49:55.323Z,11.70
2023-02-18T08:50:55.361Z,11.75
2023-02-18T08:51:55.375Z,11.70
2023-02-18T08:52:55.407Z,11.71
2023-02-18T08:53:55.419Z,11.76
2023-02-18T08:54:55.449Z,11.79
2023-02-18T08:55:55.475Z,11.81
2023-02-18T08:56:55.496Z,11.73
2023-02-18T08:57:55.523Z,11.70
2023-02-18T08:58:55.547Z,11.76
2023-02-18T08:59:55.575Z,11.73
2023-02-18T09:00:55.606Z,11.82
2023-02-18T09:01:55.624Z,11.81
2023-02-18T09:02:55.652Z,11.79
2023-02-18T09:03:55.692Z,11.73
2023-02-18T09:04:55.707Z,11.75
2023-02-18T09:05:55.726Z,11.73
2023-02-18T09:06:55.776Z,11.81
2023-02-18T09:07:55.778Z,11.76
2023-02-18T09:08:55.810Z,11.76
2023-02-18T09:09:55.829Z,11.78
2023-02-18T09:10:55.858Z,11.85
2023-02-18T09:11:55.880Z,11.71
2023-02-18T09:12:55.909Z,11.76
2023-02-18T09:13:55.934Z,11.68
2023-02-18T09:14:55.964Z,11.67
2023-02-18T09:15:56.170Z,11.64
2023-02-18T09:16:56.011Z,11.70
2023-02-18T09:17:56.033Z,11.78
2023-02-18T09:18:56.090Z,11.75
2023-02-18T09:19:56.107Z,11.91
2023-02-18T09:20:56.114Z,11.78
2023-02-18T09:21:56.136Z,11.81
2023-02-18T09:22:56.187Z,11.78
2023-02-18T09:23:56.184Z,11.94
2023-02-18T09:24:56.215Z,11.85
2023-02-18T09:25:56.236Z,11.85
2023-02-18T09:26:56.264Z,11.85
2023-02-18T09:27:56.289Z,11.82
2023-02-18T09:28:56.320Z,11.86
2023-02-18T09:29:56.353Z,11.85
2023-02-18T09:30:56.376Z,11.88
2023-02-18T09:31:56.595Z,11.86
2023-02-18T09:32:56.420Z,12.00
2023-02-18T09:33:56.446Z,11.89
2023-02-18T09:34:56.470Z,11.89
2023-02-18T09:35:56.493Z,12.07
2023-02-18T09:36:56.521Z,11.98
2023-02-18T09:37:56.546Z,12.08
2023-02-18T09:38:56.602Z,12.04
2023-02-18T09:39:56.605Z,12.15
2023-02-18T09:40:56.626Z,12.07
2023-02-18T09:41:56.648Z,12.19
2023-02-18T09:42:56.678Z,12.29
2023-02-18T09:43:56.699Z,12.31
2023-02-18T09:44:56.727Z,12.29
2023-02-18T09:45:56.764Z,12.33
2023-02-18T09:46:56.781Z,12.31
2023-02-18T09:47:56.808Z,12.26
2023-02-18T09:48:56.832Z,12.26
2023-02-18T09:49:56.868Z,12.34
2023-02-18T09:50:56.890Z,12.25
2023-02-18T09:51:56.905Z,12.26
2023-02-18T09:52:56.936Z,12.28
2023-02-18T09:53:56.961Z,12.23
2023-02-18T09:54:57.008Z,12.29
2023-02-18T09:55:57.023Z,12.25
2023-02-18T09:56:57.041Z,12.25
2023-02-18T09:57:57.102Z,12.16
2023-02-18T09:58:57.094Z,12.20
2023-02-18T09:59:57.118Z,12.20
2023-02-18T10:00:57.145Z,12.10
2023-02-18T10:01:57.286Z,12.11
2023-02-18T10:02:57.214Z,12.18
2023-02-18T10:03:57.222Z,12.16
2023-02-18T10:04:57.250Z,12.13
2023-02-18T10:05:57.275Z,12.07
2023-02-18T10:06:57.322Z,12.11
2023-02-18T10:07:57.330Z,12.23
2023-02-18T10:08:57.381Z,12.26
2023-02-18T10:09:57.381Z,12.23
2023-02-18T10:10:57.428Z,12.22
2023-02-18T10:11:57.437Z,12.23
2023-02-18T10:12:57.463Z,12.23
2023-02-18T10:13:57.492Z,12.22
2023-02-18T10:14:57.533Z,12.25
2023-02-18T10:15:57.597Z,12.25
2023-02-18T10:16:57.573Z,12.20
2023-02-18T10:17:57.589Z,12.36
2023-02-18T10:18:57.622Z,12.22
2023-02-18T10:19:57.644Z,12.34
2023-02-18T10:20:57.670Z,12.29
2023-02-18T10:21:57.696Z,12.26
2023-02-18T10:22:57.723Z,12.29
2023-02-18T10:23:57.752Z,12.36
2023-02-18T10:24:57.780Z,12.36
2023-02-18T10:25:57.801Z,12.34
2023-02-18T10:26:57.849Z,12.36
2023-02-18T10:27:57.855Z,12.38
2023-02-18T10:28:57.879Z,12.37
2023-02-18T10:29:57.999Z,12.33
2023-02-18T10:30:58.121Z,12.29
2023-02-18T10:31:58.122Z,12.29
2023-02-18T10:32:57.985Z,12.29
2023-02-18T10:33:58.265Z,12.23
2023-02-18T10:35:00.242Z,12.26
2023-02-18T10:35:58.071Z,12.18
2023-02-18T10:36:58.090Z,12.10
2023-02-18T10:37:58.118Z,12.11
2023-02-18T10:38:58.396Z,12.00
2023-02-18T10:39:58.170Z,12.05
2023-02-18T10:40:59.939Z,12.04
2023-02-18T10:41:58.226Z,12.01
2023-02-18T10:42:58.269Z,11.89
2023-02-18T10:43:58.322Z,11.84
2023-02-18T10:44:58.300Z,11.85
2023-02-18T10:45:58.327Z,11.86
2023-02-18T10:46:58.352Z,12.00
2023-02-18T10:47:58.374Z,11.97
2023-02-18T10:48:58.405Z,11.85
2023-02-18T10:49:58.428Z,11.86
2023-02-18T10:50:58.461Z,11.97
2023-02-18T10:51:58.486Z,11.89
2023-02-18T10:52:58.508Z,11.95
2023-02-18T10:53:58.533Z,12.03
2023-02-18T10:54:58.567Z,12.01
2023-02-18T10:55:58.672Z,11.98
2023-02-18T10:56:58.609Z,12.05
2023-02-18T10:57:58.636Z,12.13
2023-02-18T10:58:58.687Z,12.10
2023-02-18T10:59:58.688Z,12.11
2023-02-18T11:00:58.719Z,12.10
2023-02-18T11:01:58.878Z,12.08
2023-02-18T11:02:58.766Z,12.04
2023-02-18T11:03:58.787Z,12.10
2023-02-18T11:04:58.877Z,12.07
2023-02-18T11:05:58.840Z,12.00
2023-02-18T11:06:58.868Z,12.04
2023-02-18T11:07:58.893Z,12.10
2023-02-18T11:08:58.923Z,11.94
2023-02-18T11:09:58.944Z,11.89
2023-02-18T11:10:58.974Z,11.86
2023-02-18T11:12:07.760Z,11.79
2023-02-18T11:12:59.041Z,11.60
2023-02-18T11:13:59.053Z,11.67
2023-02-18T11:14:59.093Z,11.71
2023-02-18T11:15:59.160Z,11.52
2023-02-18T11:16:59.124Z,11.52
2023-02-18T11:17:59.154Z,11.49
2023-02-18T11:18:59.174Z,11.39
2023-02-18T11:19:59.202Z,11.38
2023-02-18T11:20:59.226Z,11.43
2023-02-18T11:21:59.254Z,11.41
2023-02-18T11:22:59.278Z,11.28
2023-02-18T11:23:59.300Z,11.35
2023-02-18T11:24:59.336Z,11.38
2023-02-18T11:25:59.355Z,11.43
2023-02-18T11:26:59.389Z,11.35
2023-02-18T11:27:59.405Z,11.45
2023-02-18T11:28:59.430Z,11.52
2023-02-18T11:29:59.501Z,11.43
2023-02-18T11:30:59.548Z,11.41
2023-02-18T11:31:59.637Z,11.34
2023-02-18T11:32:59.536Z,11.43
2023-02-18T11:33:59.557Z,11.46
2023-02-18T11:34:59.587Z,11.34
2023-02-18T11:35:59.609Z,11.38
2023-02-18T11:36:59.636Z,11.34
2023-02-18T11:37:59.664Z,11.28
2023-02-18T11:38:59.689Z,11.39
2023-02-18T11:39:59.712Z,11.42
2023-02-18T11:40:59.738Z,11.43
2023-02-18T11:41:59.763Z,11.34
2023-02-18T11:42:59.790Z,11.34
2023-02-18T11:43:59.814Z,11.41
2023-02-18T11:44:59.844Z,11.28
2023-02-18T11:45:59.866Z,11.35
2023-02-18T11:46:59.972Z,11.33
2023-02-18T11:47:59.915Z,11.34
2023-02-18T11:48:59.942Z,11.35
2023-02-18T11:49:59.969Z,11.38
2023-02-18T11:50:59.995Z,11.41
2023-02-18T11:52:00.018Z,11.41
2023-02-18T11:53:00.046Z,11.31
2023-02-18T11:54:00.105Z,11.30
2023-02-18T11:55:00.164Z,11.43
2023-02-18T11:56:00.121Z,11.31
2023-02-18T11:57:00.149Z,11.39
2023-02-18T11:58:00.173Z,11.31
2023-02-18T11:59:00.202Z,11.20
2023-02-18T12:00:00.228Z,11.23
2023-02-18T12:01:00.253Z,11.23
2023-02-18T12:02:00.357Z,11.23
2023-02-18T12:03:00.324Z,11.12
2023-02-18T12:04:00.331Z,11.24
2023-02-18T12:05:00.433Z,11.23
2023-02-18T12:06:00.384Z,11.24
2023-02-18T12:07:00.409Z,11.31
2023-02-18T12:08:00.430Z,11.23
2023-02-18T12:09:00.458Z,11.21
2023-02-18T12:10:00.484Z,11.21
2023-02-18T12:11:00.515Z,11.23
2023-02-18T12:12:00.533Z,11.21
2023-02-18T12:13:00.563Z,11.27
2023-02-18T12:14:00.591Z,11.26
2023-02-18T12:15:00.616Z,11.18
2023-02-18T12:16:00.657Z,11.27
2023-02-18T12:17:00.666Z,11.23
2023-02-18T12:18:00.691Z,11.24
2023-02-18T12:19:00.753Z,11.26
2023-02-18T12:20:00.752Z,11.27
2023-02-18T12:21:00.767Z,11.28
2023-02-18T12:22:00.791Z,11.31
2023-02-18T12:23:00.819Z,11.21
2023-02-18T12:24:00.842Z,11.15
2023-02-18T12:25:00.872Z,11.16
2023-02-18T12:26:00.894Z,11.28
2023-02-18T12:27:00.922Z,11.34
2023-02-18T12:28:00.945Z,11.28
2023-02-18T12:29:00.971Z,11.23
2023-02-18T12:30:01.047Z,11.23
2023-02-18T12:31:01.059Z,11.26
2023-02-18T12:32:01.059Z,11.21
2023-02-18T12:33:01.075Z,11.26
2023-02-18T12:34:01.100Z,11.21
2023-02-18T12:35:01.145Z,11.23
2023-02-18T12:36:01.157Z,11.26
2023-02-18T12:37:01.177Z,11.27
2023-02-18T12:38:01.206Z,11.23
2023-02-18T12:39:01.228Z,11.23
2023-02-18T12:40:01.251Z,11.30
2023-02-18T12:41:01.290Z,11.33
2023-02-18T12:42:01.306Z,11.27
2023-02-18T12:43:01.330Z,11.38
2023-02-18T12:44:01.364Z,11.38
2023-02-18T12:45:01.387Z,11.34
2023-02-18T12:46:01.432Z,11.34
2023-02-18T12:47:01.438Z,11.42
2023-02-18T12:48:01.460Z,11.28
2023-02-18T12:49:01.485Z,11.30
2023-02-18T12:50:01.528Z,11.39
2023-02-18T12:51:01.564Z,11.39
2023-02-18T12:52:01.567Z,11.52
2023-02-18T12:53:01.632Z,11.43